createdAt,value
2017-08-07T00:02:31.087Z,0
2017-08-07T00:12:45.824Z,0
2017-08-07T00:22:59.953Z,0
2017-08-07T00:33:15.286Z,0
2017-08-07T00:43:31.011Z,0
2017-08-07T00:53:45.140Z,0
2017-08-07T01:03:59.057Z,0
2017-08-07T01:14:14.008Z,0
2017-08-07T01:24:29.118Z,0
2017-08-07T01:34:43.810Z,0
2017-08-07T01:44:59.176Z,0
2017-08-07T01:55:14.762Z,0
2017-08-07T02:05:30.199Z,0
2017-08-07T02:15:44.238Z,0
2017-08-07T02:25:58.208Z,0
2017-08-07T02:36:13.794Z,0
2017-08-07T02:46:27.616Z,0
2017-08-07T02:56:41.384Z,0
2017-08-07T03:06:55.481Z,0
2017-08-07T03:17:11.046Z,0
2017-08-07T03:27:25.323Z,4
2017-08-07T03:37:40.903Z,24
2017-08-07T03:47:54.625Z,96
2017-08-07T03:58:10.114Z,280
2017-08-07T04:08:24.107Z,628
2017-08-07T04:18:39.694Z,1144
2017-08-07T04:28:54.231Z,1736
2017-08-07T04:39:09.591Z,2328
2017-08-07T04:49:23.706Z,2892
2017-08-07T04:59:38.900Z,3428
2017-08-07T05:09:53.702Z,3960
2017-08-07T05:20:08.866Z,4472
2017-08-07T05:30:22.750Z,4880
2017-08-07T05:40:38.402Z,5252
2017-08-07T05:50:53.800Z,6236
2017-08-07T06:01:09.323Z,6220
2017-08-07T06:11:23.530Z,6424
2017-08-07T06:21:37.717Z,7456
2017-08-07T06:31:53.221Z,9620
2017-08-07T06:42:08.023Z,14240
2017-08-07T06:52:22.761Z,17984
2017-08-07T07:02:37.405Z,19392
2017-08-07T07:12:52.568Z,24128
2017-08-07T07:23:06.507Z,49376
2017-08-07T07:33:21.725Z,40096
2017-08-07T07:43:35.844Z,27296
2017-08-07T07:53:51.099Z,49664
2017-08-07T08:04:06.021Z,52704
2017-08-07T08:14:20.501Z,52320
2017-08-07T08:24:35.630Z,53056
2017-08-07T08:34:51.098Z,54112
2017-08-07T08:45:05.592Z,64192
2017-08-07T08:55:20.232Z,67264
2017-08-07T09:05:34.475Z,72896
2017-08-07T09:15:49.540Z,69632
2017-08-07T09:26:04.861Z,68192
2017-08-07T09:36:19.669Z,75296
2017-08-07T09:46:33.781Z,79744
2017-08-07T09:56:49.511Z,75840
2017-08-07T10:07:03.726Z,20608
2017-08-07T10:17:19.179Z,81216
2017-08-07T10:27:34.746Z,83840
2017-08-07T10:37:49.875Z,81056
2017-08-07T10:48:04.798Z,92032
2017-08-07T10:58:18.780Z,82400
2017-08-07T11:08:32.886Z,100992
2017-08-07T11:18:47.553Z,93952
2017-08-07T11:29:01.754Z,31136
2017-08-07T11:39:17.288Z,29408
2017-08-07T11:49:31.711Z,106336
2017-08-07T11:59:47.554Z,94304
2017-08-07T12:10:02.791Z,92960
2017-08-07T12:20:17.452Z,94912
2017-08-07T12:30:31.907Z,101952
2017-08-07T12:40:45.948Z,93824
2017-08-07T12:51:00.561Z,33664
2017-08-07T13:01:15.322Z,34976
2017-08-07T13:11:29.685Z,30432
2017-08-07T13:21:44.184Z,92320
2017-08-07T13:31:59.892Z,70976
2017-08-07T13:42:14.511Z,28576
2017-08-07T13:52:29.239Z,84640
2017-08-07T14:02:44.287Z,29600
2017-08-07T14:12:59.268Z,77792
2017-08-07T14:23:14.393Z,84736
2017-08-07T14:33:29.913Z,65376
2017-08-07T14:43:44.500Z,75968
2017-08-07T14:53:59.966Z,52192
2017-08-07T15:04:14.365Z,39872
2017-08-07T15:14:28.734Z,65568
2017-08-07T15:24:42.940Z,55200
2017-08-07T15:34:57.484Z,45984
2017-08-07T15:45:12.354Z,40768
2017-08-07T15:55:26.777Z,28224
2017-08-07T16:05:42.547Z,28576
2017-08-07T16:15:57.663Z,15584
2017-08-07T16:26:13.110Z,18560
2017-08-07T16:36:27.277Z,23936
2017-08-07T16:46:41.740Z,34208
2017-08-07T16:56:57.012Z,33792
2017-08-07T17:07:11.869Z,21024
2017-08-07T17:17:25.808Z,18560
2017-08-07T17:27:41.516Z,19584
2017-08-07T17:37:55.368Z,21728
2017-08-07T17:48:09.249Z,18592
2017-08-07T17:58:24.469Z,8932
2017-08-07T18:08:39.084Z,6600
2017-08-07T18:18:54.575Z,5084
2017-08-07T18:29:08.953Z,3924
2017-08-07T18:39:24.283Z,2552
2017-08-07T18:49:39.212Z,1612
2017-08-07T18:59:53.416Z,748
2017-08-07T19:10:08.335Z,300
2017-08-07T19:20:23.851Z,112
2017-08-07T19:30:39.161Z,28
2017-08-07T19:40:53.394Z,4
2017-08-07T19:51:07.240Z,0
2017-08-07T20:01:21.233Z,0
2017-08-07T20:11:35.594Z,0
2017-08-07T20:21:50.279Z,0
2017-08-07T20:32:04.680Z,0
2017-08-07T20:42:20.229Z,0
2017-08-07T20:52:35.562Z,0
2017-08-07T21:02:50.459Z,0
2017-08-07T21:13:05.348Z,0
2017-08-07T21:23:20.898Z,0
2017-08-07T21:33:36.657Z,0
2017-08-07T21:43:52.170Z,0
2017-08-07T21:54:07.393Z,0
2017-08-07T22:04:22.180Z,0
2017-08-07T22:14:36.240Z,0
2017-08-07T22:24:50.840Z,0
2017-08-07T22:35:05.515Z,0
2017-08-07T22:45:21.077Z,0
2017-08-07T22:55:36.255Z,0
2017-08-07T23:05:51.257Z,0
2017-08-07T23:16:06.982Z,0
2017-08-07T23:26:22.504Z,0
2017-08-07T23:36:36.707Z,0
2017-08-07T23:46:51.314Z,0
2017-08-07T23:57:06.149Z,0
